sensor_id;sensor_type;location;lat;lon;timestamp;pressure;altitude;pressure_sealevel;temperature;humidity
45403;BME280;47427;51.976;5.326;2023-04-01T00:00:34;99001.94;;;9.36;100.00
45403;BME280;47427;51.976;5.326;2023-04-01T00:03:55;99002.81;;;9.44;100.00
45403;BME280;47427;51.976;5.326;2023-04-01T00:07:18;98998.47;;;9.43;100.00
45403;BME280;47427;51.976;5.326;2023-04-01T00:10:41;99006.31;;;9.46;100.00
45403;BME280;47427;51.976;5.326;2023-04-01T00:14:02;99015.91;;;9.50;100.00
45403;BME280;47427;51.976;5.326;2023-04-01T00:17:25;99011.53;;;9.44;100.00
45403;BME280;47427;51.976;5.326;2023-04-01T00:20:50;99022.00;;;9.43;100.00
45403;BME280;47427;51.976;5.326;2023-04-01T00:24:12;99022.00;;;9.30;100.00
45403;BME280;47427;51.976;5.326;2023-04-01T00:27:35;99026.34;;;9.31;100.00
45403;BME280;47427;51.976;5.326;2023-04-01T00:30:56;99022.00;;;9.27;100.00
45403;BME280;47427;51.976;5.326;2023-04-01T00:34:19;99028.06;;;9.26;100.00
45403;BME280;47427;51.976;5.326;2023-04-01T00:37:42;99024.59;;;9.27;100.00
45403;BME280;47427;51.976;5.326;2023-04-01T00:41:05;99027.22;;;9.26;100.00
45403;BME280;47427;51.976;5.326;2023-04-01T00:44:31;99022.84;;;9.23;100.00
45403;BME280;47427;51.976;5.326;2023-04-01T00:47:56;99028.97;;;9.28;100.00
45403;BME280;47427;51.976;5.326;2023-04-01T00:51:24;99032.44;;;9.29;100.00
45403;BME280;47427;51.976;5.326;2023-04-01T00:54:52;99034.19;;;9.28;100.00
45403;BME280;47427;51.976;5.326;2023-04-01T00:58:19;99033.31;;;9.28;100.00
45403;BME280;47427;51.976;5.326;2023-04-01T01:01:43;99035.94;;;9.25;100.00
45403;BME280;47427;51.976;5.326;2023-04-01T01:05:06;99039.44;;;9.25;100.00
45403;BME280;47427;51.976;5.326;2023-04-01T01:08:59;99044.66;;;9.22;100.00
45403;BME280;47427;51.976;5.326;2023-04-01T01:12:33;99035.94;;;9.22;100.00
45403;BME280;47427;51.976;5.326;2023-04-01T01:16:00;99038.53;;;9.16;100.00
45403;BME280;47427;51.976;5.326;2023-04-01T01:20:03;99048.97;;;9.11;100.00
45403;BME280;47427;51.976;5.326;2023-04-01T01:23:47;99049.88;;;9.15;100.00
45403;BME280;47427;51.976;5.326;2023-04-01T01:27:16;99047.25;;;9.10;100.00
45403;BME280;47427;51.976;5.326;2023-04-01T01:35:30;99058.59;;;9.18;100.00
45403;BME280;47427;51.976;5.326;2023-04-01T01:38:55;99052.44;;;9.02;100.00
45403;BME280;47427;51.976;5.326;2023-04-01T01:42:19;99052.41;;;8.95;100.00
45403;BME280;47427;51.976;5.326;2023-04-01T01:45:48;99054.16;;;8.96;100.00
45403;BME280;47427;51.976;5.326;2023-04-01T01:49:14;99056.78;;;8.94;100.00
45403;BME280;47427;51.976;5.326;2023-04-01T01:52:36;99060.28;;;8.98;100.00
45403;BME280;47427;51.976;5.326;2023-04-01T01:55:59;99062.91;;;8.99;100.00
45403;BME280;47427;51.976;5.326;2023-04-01T01:59:21;99065.50;;;8.92;100.00
45403;BME280;47427;51.976;5.326;2023-04-01T02:02:46;99053.28;;;8.89;100.00
45403;BME280;47427;51.976;5.326;2023-04-01T02:06:17;99054.09;;;8.74;100.00
45403;BME280;47427;51.976;5.326;2023-04-01T02:09:39;99065.41;;;8.81;100.00
45403;BME280;47427;51.976;5.326;2023-04-01T02:13:08;99076.72;;;8.75;100.00
45403;BME280;47427;51.976;5.326;2023-04-01T02:20:47;99081.13;;;8.76;100.00
45403;BME280;47427;51.976;5.326;2023-04-01T02:24:14;99080.25;;;8.77;100.00
45403;BME280;47427;51.976;5.326;2023-04-01T02:27:38;99085.47;;;8.77;100.00
45403;BME280;47427;51.976;5.326;2023-04-01T02:31:02;99075.88;;;8.75;100.00
45403;BME280;47427;51.976;5.326;2023-04-01T02:34:25;99075.88;;;8.78;100.00
45403;BME280;47427;51.976;5.326;2023-04-01T02:37:50;99088.06;;;8.76;100.00
45403;BME280;47427;51.976;5.326;2023-04-01T02:41:14;99075.03;;;8.82;100.00
45403;BME280;47427;51.976;5.326;2023-04-01T02:44:36;99085.47;;;8.83;100.00
45403;BME280;47427;51.976;5.326;2023-04-01T02:47:59;99085.53;;;8.86;100.00
45403;BME280;47427;51.976;5.326;2023-04-01T02:51:22;99091.63;;;8.87;100.00
45403;BME280;47427;51.976;5.326;2023-04-01T02:54:45;99088.13;;;8.85;100.00
45403;BME280;47427;51.976;5.326;2023-04-01T02:58:08;99093.31;;;8.80;100.00
45403;BME280;47427;51.976;5.326;2023-04-01T03:01:30;99095.94;;;8.79;100.00
45403;BME280;47427;51.976;5.326;2023-04-01T03:04:52;99103.78;;;8.79;100.00
45403;BME280;47427;51.976;5.326;2023-04-01T03:08:15;99108.13;;;8.78;100.00
45403;BME280;47427;51.976;5.326;2023-04-01T03:11:37;99098.53;;;8.74;100.00
45403;BME280;47427;51.976;5.326;2023-04-01T03:14:59;99075.81;;;8.61;100.00
45403;BME280;47427;51.976;5.326;2023-04-01T03:18:22;99110.81;;;8.90;100.00
45403;BME280;47427;51.976;5.326;2023-04-01T03:21:45;99109.88;;;8.81;100.00
45403;BME280;47427;51.976;5.326;2023-04-01T03:25:08;99126.47;;;8.83;100.00
45403;BME280;47427;51.976;5.326;2023-04-01T03:28:31;99122.09;;;8.83;100.00
45403;BME280;47427;51.976;5.326;2023-04-01T03:31:53;99123.88;;;8.87;100.00
45403;BME280;47427;51.976;5.326;2023-04-01T03:35:16;99122.13;;;8.86;100.00
45403;BME280;47427;51.976;5.326;2023-04-01T03:38:40;99118.56;;;8.78;100.00
45403;BME280;47427;51.976;5.326;2023-04-01T03:42:03;99136.03;;;8.79;100.00
45403;BME280;47427;51.976;5.326;2023-04-01T03:45:24;99132.53;;;8.77;100.00
45403;BME280;47427;51.976;5.326;2023-04-01T03:48:47;99139.50;;;8.78;100.00
45403;BME280;47427;51.976;5.326;2023-04-01T03:52:11;99139.56;;;8.84;100.00
45403;BME280;47427;51.976;5.326;2023-04-01T03:55:32;99139.53;;;8.80;100.00
45403;BME280;47427;51.976;5.326;2023-04-01T03:58:55;99148.25;;;8.83;100.00
45403;BME280;47427;51.976;5.326;2023-04-01T04:02:18;99136.06;;;8.85;100.00
45403;BME280;47427;51.976;5.326;2023-04-01T04:05:49;99144.75;;;8.83;100.00
45403;BME280;47427;51.976;5.326;2023-04-01T04:09:13;99153.47;;;8.83;100.00
45403;BME280;47427;51.976;5.326;2023-04-01T04:12:37;99151.78;;;8.93;100.00
45403;BME280;47427;51.976;5.326;2023-04-01T04:16:00;99169.28;;;9.00;100.00
45403;BME280;47427;51.976;5.326;2023-04-01T04:19:24;99165.78;;;8.97;100.00
45403;BME280;47427;51.976;5.326;2023-04-01T04:22:45;99167.50;;;8.98;100.00
45403;BME280;47427;51.976;5.326;2023-04-01T04:26:12;99177.09;;;8.99;100.00
45403;BME280;47427;51.976;5.326;2023-04-01T04:29:35;99180.59;;;9.01;100.00
45403;BME280;47427;51.976;5.326;2023-04-01T04:32:57;99181.50;;;9.06;100.00
45403;BME280;47427;51.976;5.326;2023-04-01T04:36:20;99180.66;;;9.10;100.00
45403;BME280;47427;51.976;5.326;2023-04-01T04:39:44;99195.50;;;9.13;100.00
45403;BME280;47427;51.976;5.326;2023-04-01T04:43:11;99199.94;;;9.24;100.00
45403;BME280;47427;51.976;5.326;2023-04-01T04:46:34;99197.34;;;9.32;100.00
45403;BME280;47427;51.976;5.326;2023-04-01T04:50:07;99201.69;;;9.31;100.00
45403;BME280;47427;51.976;5.326;2023-04-01T04:53:32;99212.25;;;9.45;100.00
45403;BME280;47427;51.976;5.326;2023-04-01T04:56:55;99226.19;;;9.49;100.00
45403;BME280;47427;51.976;5.326;2023-04-01T05:00:18;99227.06;;;9.40;100.00
45403;BME280;47427;51.976;5.326;2023-04-01T05:03:55;99240.13;;;9.37;100.00
45403;BME280;47427;51.976;5.326;2023-04-01T05:07:16;99243.59;;;9.36;100.00
45403;BME280;47427;51.976;5.326;2023-04-01T05:10:38;99243.66;;;9.45;100.00
45403;BME280;47427;51.976;5.326;2023-04-01T05:14:01;99250.63;;;9.45;100.00
45403;BME280;47427;51.976;5.326;2023-04-01T05:17:25;99259.38;;;9.48;100.00
45403;BME280;47427;51.976;5.326;2023-04-01T05:20:52;99264.66;;;9.59;100.00
45403;BME280;47427;51.976;5.326;2023-04-01T05:24:15;99265.53;;;9.55;100.00
45403;BME280;47427;51.976;5.326;2023-04-01T05:27:37;99275.09;;;9.51;100.00
45403;BME280;47427;51.976;5.326;2023-04-01T05:31:04;99284.69;;;9.51;100.00
45403;BME280;47427;51.976;5.326;2023-04-01T05:34:30;99290.84;;;9.58;100.00
45403;BME280;47427;51.976;5.326;2023-04-01T05:37:51;99289.09;;;9.64;100.00
45403;BME280;47427;51.976;5.326;2023-04-01T05:41:16;99285.63;;;9.67;100.00
45403;BME280;47427;51.976;5.326;2023-04-01T05:44:40;99304.88;;;9.70;100.00
45403;BME280;47427;51.976;5.326;2023-04-01T05:48:02;99304.84;;;9.69;100.00
45403;BME280;47427;51.976;5.326;2023-04-01T05:51:27;99301.31;;;9.58;100.00
45403;BME280;47427;51.976;5.326;2023-04-01T05:54:50;99310.06;;;9.64;100.00
45403;BME280;47427;51.976;5.326;2023-04-01T05:58:12;99314.44;;;9.65;100.00
45403;BME280;47427;51.976;5.326;2023-04-01T06:01:39;99320.59;;;9.73;100.00
45403;BME280;47427;51.976;5.326;2023-04-01T06:05:19;99319.72;;;9.70;100.00
45403;BME280;47427;51.976;5.326;2023-04-01T06:08:43;99327.56;;;9.74;100.00
45403;BME280;47427;51.976;5.326;2023-04-01T06:12:33;99328.41;;;9.69;100.00
45403;BME280;47427;51.976;5.326;2023-04-01T06:20:32;99345.03;;;9.74;100.00
45403;BME280;47427;51.976;5.326;2023-04-01T06:47:33;99394.75;;;9.65;100.00
45403;BME280;47427;51.976;5.326;2023-04-01T06:51:35;99388.66;;;9.70;100.00
45403;BME280;47427;51.976;5.326;2023-04-01T06:55:41;99401.72;;;9.64;100.00
45403;BME280;47427;51.976;5.326;2023-04-01T06:59:29;99408.66;;;9.58;100.00
45403;BME280;47427;51.976;5.326;2023-04-01T07:03:20;99421.75;;;9.58;100.00
45403;BME280;47427;51.976;5.326;2023-04-01T07:06:55;99420.03;;;9.60;100.00
45403;BME280;47427;51.976;5.326;2023-04-01T07:14:34;99421.00;;;9.75;100.00
45403;BME280;47427;51.976;5.326;2023-04-01T07:18:21;99438.56;;;9.92;100.00
45403;BME280;47427;51.976;5.326;2023-04-01T07:21:49;99443.81;;;9.95;100.00
45403;BME280;47427;51.976;5.326;2023-04-01T07:25:34;99456.94;;;9.99;100.00
45403;BME280;47427;51.976;5.326;2023-04-01T07:29:16;99452.56;;;10.00;100.00
45403;BME280;47427;51.976;5.326;2023-04-01T07:33:19;99465.66;;;9.95;100.00
45403;BME280;47427;51.976;5.326;2023-04-01T07:49:21;99483.09;;;9.90;100.00
45403;BME280;47427;51.976;5.326;2023-04-01T08:04:49;99513.84;;;10.19;100.00
45403;BME280;47427;51.976;5.326;2023-04-01T08:08:23;99526.16;;;10.28;100.00
45403;BME280;47427;51.976;5.326;2023-04-01T08:12:24;99523.66;;;10.49;100.00
45403;BME280;47427;51.976;5.326;2023-04-01T08:20:37;99549.09;;;10.62;100.00
45403;BME280;47427;51.976;5.326;2023-04-01T08:24:35;99540.25;;;10.45;100.00
45403;BME280;47427;51.976;5.326;2023-04-01T08:28:13;99554.31;;;10.56;100.00
45403;BME280;47427;51.976;5.326;2023-04-01T08:32:00;99560.53;;;10.83;100.00
45403;BME280;47427;51.976;5.326;2023-04-01T08:35:26;99558.00;;;11.03;100.00
45403;BME280;47427;51.976;5.326;2023-04-01T08:39:06;99570.16;;;10.76;100.00
45403;BME280;47427;51.976;5.326;2023-04-01T08:55:27;99586.16;;;11.64;100.00
45403;BME280;47427;51.976;5.326;2023-04-01T08:59:29;99592.28;;;11.57;100.00
45403;BME280;47427;51.976;5.326;2023-04-01T09:07:16;99603.50;;;11.02;100.00
45403;BME280;47427;51.976;5.326;2023-04-01T09:10:47;99609.66;;;11.07;100.00
45403;BME280;47427;51.976;5.326;2023-04-01T09:22:32;99616.56;;;10.91;100.00
45403;BME280;47427;51.976;5.326;2023-04-01T09:26:34;99624.47;;;10.94;100.00
45403;BME280;47427;51.976;5.326;2023-04-01T09:38:41;99642.09;;;11.29;100.00
45403;BME280;47427;51.976;5.326;2023-04-01T11:07:04;99727.06;;;13.86;100.00
45403;BME280;47427;51.976;5.326;2023-04-01T11:19:17;99731.44;;;13.93;100.00
45403;BME280;47427;51.976;5.326;2023-04-01T11:31:39;99745.31;;;14.26;100.00
45403;BME280;47427;51.976;5.326;2023-04-01T11:39:33;99752.97;;;15.54;100.00
45403;BME280;47427;51.976;5.326;2023-04-01T11:43:24;99749.56;;;16.73;100.00
45403;BME280;47427;51.976;5.326;2023-04-01T11:47:38;99758.34;;;16.19;100.00
45403;BME280;47427;51.976;5.326;2023-04-01T12:10:17;99787.34;;;14.55;100.00
45403;BME280;47427;51.976;5.326;2023-04-01T12:21:27;99795.59;;;15.23;100.00
45403;BME280;47427;51.976;5.326;2023-04-01T12:33:20;99814.16;;;15.17;100.00
45403;BME280;47427;51.976;5.326;2023-04-01T12:36:54;99818.06;;;14.65;100.00
45403;BME280;47427;51.976;5.326;2023-04-01T12:52:18;99839.38;;;14.27;100.00
45403;BME280;47427;51.976;5.326;2023-04-01T12:55:45;99830.72;;;14.02;100.00
45403;BME280;47427;51.976;5.326;2023-04-01T12:59:54;99844.94;;;13.32;100.00
45403;BME280;47427;51.976;5.326;2023-04-01T13:03:58;99854.59;;;12.90;100.00
45403;BME280;47427;51.976;5.326;2023-04-01T13:07:32;99861.63;;;12.88;100.00
45403;BME280;47427;51.976;5.326;2023-04-01T13:18:57;99880.91;;;12.93;100.00
45403;BME280;47427;51.976;5.326;2023-04-01T13:23:01;99872.13;;;12.88;100.00
45403;BME280;47427;51.976;5.326;2023-04-01T13:34:13;99901.13;;;13.09;100.00
45403;BME280;47427;51.976;5.326;2023-04-01T14:02:07;99914.31;;;13.64;100.00
45403;BME280;47427;51.976;5.326;2023-04-01T14:09:56;99919.59;;;13.34;100.00
45403;BME280;47427;51.976;5.326;2023-04-01T14:17:46;99938.88;;;13.11;100.00
45403;BME280;47427;51.976;5.326;2023-04-01T14:21:33;99936.25;;;13.07;100.00
45403;BME280;47427;51.976;5.326;2023-04-01T14:25:30;99945.00;;;12.96;100.00
45403;BME280;47427;51.976;5.326;2023-04-01T14:36:47;99949.31;;;12.67;100.00
45403;BME280;47427;51.976;5.326;2023-04-01T14:51:40;99971.25;;;12.75;100.00
45403;BME280;47427;51.976;5.326;2023-04-01T14:55:34;99966.94;;;12.89;100.00
45403;BME280;47427;51.976;5.326;2023-04-01T14:59:10;99980.03;;;12.66;100.00
45403;BME280;47427;51.976;5.326;2023-04-01T15:02:54;99989.56;;;12.43;100.00
45403;BME280;47427;51.976;5.326;2023-04-01T15:06:56;100000.00;;;12.26;100.00
45403;BME280;47427;51.976;5.326;2023-04-01T15:14:35;100013.03;;;12.06;100.00
45403;BME280;47427;51.976;5.326;2023-04-01T15:18:10;100034.13;;;12.13;100.00
45403;BME280;47427;51.976;5.326;2023-04-01T15:33:43;100056.63;;;11.81;100.00
45403;BME280;47427;51.976;5.326;2023-04-01T15:41:07;100071.53;;;11.85;100.00
45403;BME280;47427;51.976;5.326;2023-04-01T15:44:58;100082.19;;;11.96;100.00
45403;BME280;47427;51.976;5.326;2023-04-01T15:49:11;100090.94;;;11.93;100.00
45403;BME280;47427;51.976;5.326;2023-04-01T16:01:02;100112.94;;;12.07;100.00
45403;BME280;47427;51.976;5.326;2023-04-01T16:04:46;100113.00;;;12.13;100.00
45403;BME280;47427;51.976;5.326;2023-04-01T16:11:53;100132.31;;;12.16;100.00
45403;BME280;47427;51.976;5.326;2023-04-01T16:15:41;100138.38;;;12.08;100.00
45403;BME280;47427;51.976;5.326;2023-04-01T16:19:29;100139.16;;;11.95;100.00
45403;BME280;47427;51.976;5.326;2023-04-01T16:30:40;100156.28;;;11.61;100.00
45403;BME280;47427;51.976;5.326;2023-04-01T16:38:24;100163.06;;;11.40;100.00
45403;BME280;47427;51.976;5.326;2023-04-01T16:53:09;100215.50;;;11.34;100.00
45403;BME280;47427;51.976;5.326;2023-04-01T17:00:37;100238.06;;;11.17;100.00
45403;BME280;47427;51.976;5.326;2023-04-01T17:04:27;100236.22;;;11.13;100.00
45403;BME280;47427;51.976;5.326;2023-04-01T17:12:45;100246.84;;;10.62;100.00
45403;BME280;47427;51.976;5.326;2023-04-01T17:16:45;100271.28;;;10.60;100.00
45403;BME280;47427;51.976;5.326;2023-04-01T17:35:30;100314.00;;;10.51;100.00
45403;BME280;47427;51.976;5.326;2023-04-01T17:39:19;100323.50;;;10.46;100.00
45403;BME280;47427;51.976;5.326;2023-04-01T17:59:09;100371.59;;;10.04;100.00
45403;BME280;47427;51.976;5.326;2023-04-01T18:10:12;100399.38;;;9.96;100.00
45403;BME280;47427;51.976;5.326;2023-04-01T18:13:41;100412.44;;;9.94;100.00
45403;BME280;47427;51.976;5.326;2023-04-01T18:21:42;100429.63;;;9.80;100.00
45403;BME280;47427;51.976;5.326;2023-04-01T18:25:41;100438.53;;;9.88;100.00
45403;BME280;47427;51.976;5.326;2023-04-01T18:33:00;100453.03;;;9.72;100.00
45403;BME280;47427;51.976;5.326;2023-04-01T18:36:50;100468.13;;;9.84;100.00
45403;BME280;47427;51.976;5.326;2023-04-01T18:44:28;100469.75;;;9.79;100.00
45403;BME280;47427;51.976;5.326;2023-04-01T18:51:58;100479.09;;;9.68;100.00
45403;BME280;47427;51.976;5.326;2023-04-01T18:55:33;100508.81;;;9.68;100.00
45403;BME280;47427;51.976;5.326;2023-04-01T19:03:31;100528.06;;;9.70;100.00
45403;BME280;47427;51.976;5.326;2023-04-01T19:06:59;100526.16;;;9.63;100.00
45403;BME280;47427;51.976;5.326;2023-04-01T19:10:43;100544.41;;;9.60;100.00
45403;BME280;47427;51.976;5.326;2023-04-01T19:14:55;100558.31;;;9.58;100.00
45403;BME280;47427;51.976;5.326;2023-04-01T19:25:55;100585.22;;;9.52;100.00
45403;BME280;47427;51.976;5.326;2023-04-01T19:29:45;100592.88;;;9.44;100.00
45403;BME280;47427;51.976;5.326;2023-04-01T19:48:45;100625.00;;;9.37;100.00
45403;BME280;47427;51.976;5.326;2023-04-01T19:52:23;100628.34;;;9.33;100.00
45403;BME280;47427;51.976;5.326;2023-04-01T19:56:20;100619.22;;;9.19;100.00
45403;BME280;47427;51.976;5.326;2023-04-01T20:07:42;100663.72;;;9.19;100.00
45403;BME280;47427;51.976;5.326;2023-04-01T20:14:58;100679.19;;;9.11;100.00
45403;BME280;47427;51.976;5.326;2023-04-01T20:25:57;100704.53;;;8.83;100.00
45403;BME280;47427;51.976;5.326;2023-04-01T20:38:17;100739.56;;;8.60;100.00
45403;BME280;47427;51.976;5.326;2023-04-01T20:42:12;100750.09;;;8.63;100.00
45403;BME280;47427;51.976;5.326;2023-04-01T20:46:30;100758.59;;;8.56;100.00
45403;BME280;47427;51.976;5.326;2023-04-01T20:50:41;100777.50;;;8.47;100.00
45403;BME280;47427;51.976;5.326;2023-04-01T21:06:58;100794.91;;;8.22;100.00
45403;BME280;47427;51.976;5.326;2023-04-01T21:10:34;100810.28;;;8.13;100.00
45403;BME280;47427;51.976;5.326;2023-04-01T21:30:01;100849.47;;;7.89;100.00
45403;BME280;47427;51.976;5.326;2023-04-01T21:33:40;100858.97;;;7.87;100.00
45403;BME280;47427;51.976;5.326;2023-04-01T22:01:12;100903.38;;;7.87;100.00
45403;BME280;47427;51.976;5.326;2023-04-01T22:08:33;100927.84;;;7.89;100.00
45403;BME280;47427;51.976;5.326;2023-04-01T22:12:17;100926.88;;;7.87;100.00
45403;BME280;47427;51.976;5.326;2023-04-01T22:30:59;100956.22;;;7.57;100.00
45403;BME280;47427;51.976;5.326;2023-04-01T22:34:57;100966.81;;;7.62;100.00
45403;BME280;47427;51.976;5.326;2023-04-01T22:39:10;100982.31;;;7.57;100.00
45403;BME280;47427;51.976;5.326;2023-04-01T22:46:50;100991.28;;;7.64;100.00
45403;BME280;47427;51.976;5.326;2023-04-01T22:50:32;100993.22;;;7.47;100.00
45403;BME280;47427;51.976;5.326;2023-04-01T22:58:09;101015.53;;;7.62;100.00
45403;BME280;47427;51.976;5.326;2023-04-01T23:01:38;101015.34;;;7.57;100.00
45403;BME280;47427;51.976;5.326;2023-04-01T23:05:05;101025.78;;;7.57;100.00
45403;BME280;47427;51.976;5.326;2023-04-01T23:12:17;101035.47;;;7.38;100.00
45403;BME280;47427;51.976;5.326;2023-04-01T23:15:40;101027.59;;;7.37;100.00
45403;BME280;47427;51.976;5.326;2023-04-01T23:19:17;101046.78;;;7.18;100.00
45403;BME280;47427;51.976;5.326;2023-04-01T23:26:56;101055.25;;;7.12;100.00
45403;BME280;47427;51.976;5.326;2023-04-01T23:34:22;101071.03;;;7.15;100.00
45403;BME280;47427;51.976;5.326;2023-04-01T23:37:46;101084.50;;;7.25;100.00
45403;BME280;47427;51.976;5.326;2023-04-01T23:41:23;101072.88;;;7.18;100.00
45403;BME280;47427;51.976;5.326;2023-04-01T23:44:51;101096.91;;;7.30;100.00
45403;BME280;47427;51.976;5.326;2023-04-01T23:48:16;101093.56;;;7.13;100.00
45403;BME280;47427;51.976;5.326;2023-04-01T23:51:56;101104.00;;;7.13;100.00
45403;BME280;47427;51.976;5.326;2023-04-01T23:55:26;101118.00;;;7.15;100.00
45403;BME280;47427;51.976;5.326;2023-04-01T23:58:50;101131.06;;;7.15;100.00
